createdAt,value
2017-01-26T04:00:30.404Z,1030.99
2017-01-26T04:00:55.973Z,1030.99
2017-01-26T04:01:21.523Z,1031.01
2017-01-26T04:01:47.133Z,1031.02
2017-01-26T04:02:12.821Z,1031.01
2017-01-26T04:02:38.374Z,1030.97
2017-01-26T04:03:03.933Z,1030.95
2017-01-26T04:03:29.531Z,1031
2017-01-26T04:03:55.093Z,1030.93
2017-01-26T04:04:20.651Z,1030.99
2017-01-26T04:04:46.198Z,1030.92
2017-01-26T04:05:11.748Z,1030.9
2017-01-26T04:05:37.999Z,1030.95
2017-01-26T04:06:03.650Z,1030.91
2017-01-26T04:06:29.219Z,1030.97
2017-01-26T04:06:54.795Z,1030.94
2017-01-26T04:07:20.348Z,1030.92
2017-01-26T04:07:45.919Z,1030.98
2017-01-26T04:08:11.491Z,1030.96
2017-01-26T04:08:37.069Z,1030.92
2017-01-26T04:09:02.645Z,1030.96
2017-01-26T04:09:28.205Z,1030.96
2017-01-26T04:09:53.797Z,1030.96
2017-01-26T04:10:19.365Z,1030.99
2017-01-26T04:10:44.926Z,1030.96
2017-01-26T04:11:10.479Z,1030.94
2017-01-26T04:11:36.044Z,1030.95
2017-01-26T04:12:02.277Z,1030.93
2017-01-26T04:12:27.955Z,1030.9
2017-01-26T04:12:53.506Z,1030.96
2017-01-26T04:13:19.202Z,1030.94
2017-01-26T04:13:44.980Z,1030.9
2017-01-26T04:14:10.646Z,1030.89
2017-01-26T04:14:36.869Z,1030.91
2017-01-26T04:15:02.421Z,1030.97
2017-01-26T04:15:27.961Z,1030.89
2017-01-26T04:15:53.544Z,1030.94
2017-01-26T04:16:19.130Z,1030.92
2017-01-26T04:16:44.720Z,1030.9
2017-01-26T04:17:10.271Z,1030.91
2017-01-26T04:17:35.900Z,1030.91
2017-01-26T04:18:01.515Z,1030.9
2017-01-26T04:18:27.093Z,1030.88
2017-01-26T04:18:52.661Z,1030.87
2017-01-26T04:19:18.340Z,1030.87
2017-01-26T04:19:43.922Z,1030.84
2017-01-26T04:20:09.494Z,1030.86
2017-01-26T04:20:35.068Z,1030.81
2017-01-26T04:21:00.716Z,1030.82
2017-01-26T04:21:26.310Z,1030.82
2017-01-26T04:21:51.906Z,1030.8
2017-01-26T04:22:17.606Z,1030.83
2017-01-26T04:22:43.163Z,1030.81
2017-01-26T04:23:08.725Z,1030.8
2017-01-26T04:23:34.294Z,1030.8
2017-01-26T04:23:59.933Z,1030.82
2017-01-26T04:24:25.502Z,1030.8
2017-01-26T04:24:51.098Z,1030.78
2017-01-26T04:25:16.668Z,1030.79
2017-01-26T04:25:42.219Z,1030.76
2017-01-26T04:26:07.773Z,1030.79
2017-01-26T04:26:33.334Z,1030.8
2017-01-26T04:26:58.931Z,1030.72
2017-01-26T04:27:24.503Z,1030.73
2017-01-26T04:27:50.058Z,1030.77
2017-01-26T04:28:15.622Z,1030.73
2017-01-26T04:28:41.317Z,1030.73
2017-01-26T04:29:06.906Z,1030.7
2017-01-26T04:29:32.476Z,1030.67
2017-01-26T04:29:58.044Z,1030.68
2017-01-26T04:30:23.704Z,1030.68
2017-01-26T04:30:49.272Z,1030.69
2017-01-26T04:31:14.847Z,1030.68
2017-01-26T04:31:40.402Z,1030.68
2017-01-26T04:32:06.116Z,1030.72
2017-01-26T04:32:31.659Z,1030.68
2017-01-26T04:32:57.356Z,1030.67
2017-01-26T04:33:22.933Z,1030.7
2017-01-26T04:33:48.542Z,1030.7
2017-01-26T04:34:14.104Z,1030.68
2017-01-26T04:34:39.676Z,1030.65
2017-01-26T04:35:05.246Z,1030.65
2017-01-26T04:35:30.928Z,1030.67
2017-01-26T04:35:56.525Z,1030.67
2017-01-26T04:36:22.087Z,1030.67
2017-01-26T04:36:47.662Z,1030.64
2017-01-26T04:37:13.370Z,1030.66
2017-01-26T04:37:38.955Z,1030.64
2017-01-26T04:38:04.522Z,1030.63
2017-01-26T04:38:30.103Z,1030.62
2017-01-26T04:38:55.742Z,1030.62
2017-01-26T04:39:21.296Z,1030.66
2017-01-26T04:39:46.870Z,1030.62
2017-01-26T04:40:12.453Z,1030.66
2017-01-26T04:40:38.065Z,1030.61
2017-01-26T04:41:03.725Z,1030.65
2017-01-26T04:41:29.295Z,1030.63
2017-01-26T04:41:54.847Z,1030.61
2017-01-26T04:42:20.404Z,1030.66
2017-01-26T04:42:45.965Z,1030.66
2017-01-26T04:43:11.536Z,1030.65
2017-01-26T04:43:37.091Z,1030.6
2017-01-26T04:44:02.645Z,1030.61
2017-01-26T04:44:28.229Z,1030.65
2017-01-26T04:44:53.846Z,1030.62
2017-01-26T04:45:19.433Z,1030.58
2017-01-26T04:45:45.077Z,1030.62
2017-01-26T04:46:10.629Z,1030.61
2017-01-26T04:46:36.208Z,1030.57
2017-01-26T04:47:01.815Z,1030.57
2017-01-26T04:47:27.409Z,1030.56
2017-01-26T04:47:52.982Z,1030.56
2017-01-26T04:48:18.564Z,1030.55
2017-01-26T04:48:44.152Z,1030.57
2017-01-26T04:49:09.718Z,1030.49
2017-01-26T04:49:35.269Z,1030.53
2017-01-26T04:50:00.829Z,1030.56
2017-01-26T04:50:26.529Z,1030.52
2017-01-26T04:50:52.091Z,1030.51
2017-01-26T04:51:17.678Z,1030.52
2017-01-26T04:51:43.234Z,1030.52
2017-01-26T04:52:08.873Z,1030.5
2017-01-26T04:52:34.497Z,1030.52
2017-01-26T04:53:00.078Z,1030.53
2017-01-26T04:53:25.713Z,1030.55
2017-01-26T04:53:51.283Z,1030.51
2017-01-26T04:54:16.848Z,1030.48
2017-01-26T04:54:42.420Z,1030.49
2017-01-26T04:55:08.007Z,1030.52
2017-01-26T04:55:33.575Z,1030.5
2017-01-26T04:55:59.121Z,1030.46
2017-01-26T04:56:24.683Z,1030.53
2017-01-26T04:56:50.282Z,1030.48
2017-01-26T04:57:15.866Z,1030.45
2017-01-26T04:57:41.419Z,1030.45
2017-01-26T04:58:07.004Z,1030.4
2017-01-26T04:58:32.658Z,1030.46
2017-01-26T04:58:58.224Z,1030.46
2017-01-26T04:59:23.783Z,1030.48
2017-01-26T04:59:49.343Z,1030.46
2017-01-26T05:00:14.905Z,1030.44
2017-01-26T05:00:40.469Z,1030.43
2017-01-26T05:01:06.027Z,1030.42
2017-01-26T05:01:31.623Z,1030.38
2017-01-26T05:01:57.198Z,1030.43
2017-01-26T05:02:23.056Z,1030.42
2017-01-26T05:02:48.650Z,1030.38
2017-01-26T05:03:14.219Z,1030.37
2017-01-26T05:03:39.793Z,1030.41
2017-01-26T05:04:05.499Z,1030.39
2017-01-26T05:04:31.066Z,1030.41
2017-01-26T05:04:56.627Z,1030.41
2017-01-26T05:05:22.206Z,1030.41
2017-01-26T05:05:47.772Z,1030.37
2017-01-26T05:06:13.343Z,1030.38
2017-01-26T05:06:38.906Z,1030.38
2017-01-26T05:07:04.473Z,1030.39
2017-01-26T05:07:30.046Z,1030.4
2017-01-26T05:07:55.671Z,1030.39
2017-01-26T05:08:21.232Z,1030.4
2017-01-26T05:08:46.801Z,1030.4
2017-01-26T05:09:12.380Z,1030.41
2017-01-26T05:09:37.964Z,1030.37
2017-01-26T05:10:03.539Z,1030.36
2017-01-26T05:10:29.094Z,1030.36
2017-01-26T05:10:54.759Z,1030.36
2017-01-26T05:11:20.225Z,1030.36
2017-01-26T05:11:45.875Z,1030.38
2017-01-26T05:12:11.441Z,1030.35
2017-01-26T05:12:37.015Z,1030.37
2017-01-26T05:13:02.627Z,1030.34
2017-01-26T05:13:28.219Z,1030.34
2017-01-26T05:13:53.804Z,1030.35
2017-01-26T05:14:19.369Z,1030.33
2017-01-26T05:14:44.923Z,1030.32
2017-01-26T05:15:10.491Z,1030.32
2017-01-26T05:15:36.052Z,1030.34
2017-01-26T05:16:01.614Z,1030.33
2017-01-26T05:16:27.261Z,1030.33
2017-01-26T05:16:52.841Z,1030.32
2017-01-26T05:17:18.418Z,1030.35
2017-01-26T05:17:44.002Z,1030.33
2017-01-26T05:18:09.647Z,1030.33
2017-01-26T05:18:35.219Z,1030.31
2017-01-26T05:19:00.807Z,1030.35
2017-01-26T05:19:26.467Z,1030.33
2017-01-26T05:19:52.068Z,1030.32
2017-01-26T05:20:17.636Z,1030.33
2017-01-26T05:20:43.218Z,1030.29
2017-01-26T05:21:08.798Z,1030.28
2017-01-26T05:21:34.359Z,1030.31
2017-01-26T05:21:59.945Z,1030.3
2017-01-26T05:22:25.601Z,1030.34
2017-01-26T05:22:51.181Z,1030.28
2017-01-26T05:23:16.743Z,1030.29
2017-01-26T05:23:42.298Z,1030.25
2017-01-26T05:24:08.040Z,1030.31
2017-01-26T05:24:33.610Z,1030.27
2017-01-26T05:24:59.176Z,1030.28
2017-01-26T05:25:24.738Z,1030.3
2017-01-26T05:25:50.307Z,1030.28
2017-01-26T05:26:16.002Z,1030.29
2017-01-26T05:26:41.571Z,1030.26
2017-01-26T05:27:07.167Z,1030.29
2017-01-26T05:27:32.746Z,1030.24
2017-01-26T05:27:58.416Z,1030.31
2017-01-26T05:28:24.051Z,1030.27
2017-01-26T05:28:49.620Z,1030.26
2017-01-26T05:29:15.211Z,1030.3
2017-01-26T05:29:40.787Z,1030.24
2017-01-26T05:30:06.342Z,1030.28
2017-01-26T05:30:31.919Z,1030.26
2017-01-26T05:30:57.556Z,1030.28
2017-01-26T05:31:23.136Z,1030.24
2017-01-26T05:31:48.708Z,1030.27
2017-01-26T05:32:14.337Z,1030.23
2017-01-26T05:32:39.932Z,1030.27
2017-01-26T05:33:05.476Z,1030.26
2017-01-26T05:33:31.047Z,1030.28
2017-01-26T05:33:56.610Z,1030.22
2017-01-26T05:34:22.158Z,1030.24
2017-01-26T05:34:47.792Z,1030.23
2017-01-26T05:35:13.350Z,1030.27
2017-01-26T05:35:38.921Z,1030.27
2017-01-26T05:36:04.473Z,1030.24
2017-01-26T05:36:30.071Z,1030.26
2017-01-26T05:36:55.611Z,1030.27
2017-01-26T05:37:21.179Z,1030.25
2017-01-26T05:37:46.732Z,1030.25
2017-01-26T05:38:12.353Z,1030.25
2017-01-26T05:38:37.971Z,1030.27
2017-01-26T05:39:03.538Z,1030.26
2017-01-26T05:39:29.106Z,1030.25
2017-01-26T05:39:54.686Z,1030.26
2017-01-26T05:40:20.250Z,1030.24
2017-01-26T05:40:45.838Z,1030.23
2017-01-26T05:41:11.404Z,1030.24
2017-01-26T05:41:36.966Z,1030.2
2017-01-26T05:42:02.528Z,1030.19
2017-01-26T05:42:28.167Z,1030.23
2017-01-26T05:42:54.974Z,1030.24
2017-01-26T05:43:19.838Z,1030.21
2017-01-26T05:43:45.399Z,1030.25
2017-01-26T05:44:10.975Z,1030.22
2017-01-26T05:44:36.567Z,1030.24
2017-01-26T05:45:02.126Z,1030.22
2017-01-26T05:45:27.694Z,1030.25
2017-01-26T05:45:53.268Z,1030.23
2017-01-26T05:46:18.838Z,1030.24
2017-01-26T05:46:44.401Z,1030.22
2017-01-26T05:47:10.097Z,1030.24
2017-01-26T05:47:35.671Z,1030.22
2017-01-26T05:48:01.226Z,1030.24
2017-01-26T05:48:26.795Z,1030.22
2017-01-26T05:48:52.357Z,1030.21
2017-01-26T05:49:17.923Z,1030.24
2017-01-26T05:49:43.486Z,1030.2
2017-01-26T05:50:09.053Z,1030.21
2017-01-26T05:50:34.604Z,1030.21
2017-01-26T05:51:00.187Z,1030.23
2017-01-26T05:51:25.756Z,1030.2
2017-01-26T05:51:51.334Z,1030.21
2017-01-26T05:52:16.964Z,1030.23
2017-01-26T05:52:42.529Z,1030.22
2017-01-26T05:53:08.101Z,1030.18
2017-01-26T05:53:33.656Z,1030.2
2017-01-26T05:53:59.235Z,1030.17
2017-01-26T05:54:24.841Z,1030.18
2017-01-26T05:54:50.414Z,1030.17
2017-01-26T05:55:15.970Z,1030.2
2017-01-26T05:55:41.597Z,1030.17
2017-01-26T05:56:07.217Z,1030.18
2017-01-26T05:56:32.792Z,1030.18
2017-01-26T05:56:58.386Z,1030.18
2017-01-26T05:57:24.046Z,1030.13
2017-01-26T05:57:49.625Z,1030.21
2017-01-26T05:58:16.006Z,1030.19
2017-01-26T05:58:40.761Z,1030.18
2017-01-26T05:59:06.344Z,1030.2
2017-01-26T05:59:31.886Z,1030.21
2017-01-26T05:59:57.593Z,1030.23
2017-01-26T06:00:23.174Z,1030.21
2017-01-26T06:00:48.746Z,1030.15
2017-01-26T06:01:14.310Z,1030.21
2017-01-26T06:01:39.900Z,1030.14
2017-01-26T06:02:05.473Z,1030.16
2017-01-26T06:02:31.028Z,1030.15
2017-01-26T06:02:56.601Z,1030.19
2017-01-26T06:03:22.182Z,1030.17
2017-01-26T06:03:47.790Z,1030.17
2017-01-26T06:04:13.376Z,1030.15
2017-01-26T06:04:38.921Z,1030.15
2017-01-26T06:05:04.484Z,1030.14
2017-01-26T06:05:30.164Z,1030.11
2017-01-26T06:05:55.723Z,1030.15
2017-01-26T06:06:21.294Z,1030.13
2017-01-26T06:06:46.916Z,1030.12
2017-01-26T06:07:12.478Z,1030.06
2017-01-26T06:07:38.236Z,1030.12
2017-01-26T06:08:03.804Z,1030.12
2017-01-26T06:08:29.386Z,1030.11
2017-01-26T06:08:55.003Z,1030.13
2017-01-26T06:09:20.617Z,1030.1
2017-01-26T06:09:46.178Z,1030.09
2017-01-26T06:10:11.792Z,1030.12
2017-01-26T06:10:37.361Z,1030.14
2017-01-26T06:11:35.805Z,1030.17
2017-01-26T06:12:01.374Z,1030.15
2017-01-26T06:12:26.951Z,1030.18
2017-01-26T06:12:52.523Z,1030.15
2017-01-26T06:13:18.077Z,1030.19
2017-01-26T06:13:43.734Z,1030.16
2017-01-26T06:14:09.288Z,1030.15
2017-01-26T06:14:34.850Z,1030.12
2017-01-26T06:15:00.513Z,1030.13
2017-01-26T06:15:26.099Z,1030.12
2017-01-26T06:15:51.669Z,1030.12
2017-01-26T06:16:17.220Z,1030.11
2017-01-26T06:16:42.910Z,1030.13
2017-01-26T06:17:08.487Z,1030.15
2017-01-26T06:17:34.084Z,1030.18
2017-01-26T06:17:59.656Z,1030.15
2017-01-26T06:18:25.247Z,1030.12
2017-01-26T06:18:50.815Z,1030.19
2017-01-26T06:19:16.499Z,1030.16
2017-01-26T06:19:42.167Z,1030.19
2017-01-26T06:20:07.728Z,1030.15
2017-01-26T06:20:33.291Z,1030.13
2017-01-26T06:20:58.862Z,1030.17
2017-01-26T06:21:24.460Z,1030.12
2017-01-26T06:21:50.016Z,1030.16
2017-01-26T06:22:15.577Z,1030.15
2017-01-26T06:22:41.161Z,1030.18
2017-01-26T06:23:06.734Z,1030.17
2017-01-26T06:23:32.317Z,1030.19
2017-01-26T06:23:57.870Z,1030.18
2017-01-26T06:24:23.495Z,1030.18
2017-01-26T06:24:49.066Z,1030.13
2017-01-26T06:25:14.638Z,1030.16
2017-01-26T06:25:40.290Z,1030.19
2017-01-26T06:26:05.855Z,1030.17
2017-01-26T06:26:31.411Z,1030.17
2017-01-26T06:26:56.978Z,1030.18
2017-01-26T06:27:22.553Z,1030.17
2017-01-26T06:27:48.130Z,1030.12
2017-01-26T06:28:13.694Z,1030.19
2017-01-26T06:28:39.269Z,1030.15
2017-01-26T06:29:04.849Z,1030.17
2017-01-26T06:29:30.503Z,1030.21
2017-01-26T06:29:56.067Z,1030.16
2017-01-26T06:30:21.633Z,1030.19
2017-01-26T06:30:47.209Z,1030.19
2017-01-26T06:31:12.794Z,1030.21
2017-01-26T06:31:38.365Z,1030.17
2017-01-26T06:32:03.918Z,1030.18
2017-01-26T06:32:29.595Z,1030.23
2017-01-26T06:32:55.126Z,1030.19
2017-01-26T06:33:20.682Z,1030.19
2017-01-26T06:33:46.322Z,1030.19
2017-01-26T06:34:11.857Z,1030.24
2017-01-26T06:34:37.415Z,1030.23
2017-01-26T06:35:03.080Z,1030.23
2017-01-26T06:36:44.195Z,1030.24
2017-01-26T06:37:52.516Z,1030.23
2017-01-26T06:38:18.120Z,1030.24
2017-01-26T06:38:43.739Z,1030.2
2017-01-26T06:39:09.321Z,1030.2
2017-01-26T06:39:34.890Z,1030.2
2017-01-26T06:40:00.528Z,1030.19
2017-01-26T06:40:26.109Z,1030.19
2017-01-26T06:40:51.756Z,1030.21
2017-01-26T06:41:17.318Z,1030.22
2017-01-26T06:41:42.877Z,1030.2
2017-01-26T06:42:08.433Z,1030.17
2017-01-26T06:42:34.039Z,1030.18
2017-01-26T06:42:59.707Z,1030.17
2017-01-26T06:43:25.277Z,1030.21
2017-01-26T06:43:50.832Z,1030.23
2017-01-26T06:44:16.402Z,1030.2
2017-01-26T06:44:41.954Z,1030.17
2017-01-26T06:45:07.514Z,1030.2
2017-01-26T06:45:33.099Z,1030.2
2017-01-26T06:45:58.702Z,1030.18
2017-01-26T06:46:24.283Z,1030.19
2017-01-26T06:46:49.944Z,1030.21
2017-01-26T06:47:15.510Z,1030.19
2017-01-26T06:47:41.070Z,1030.21
2017-01-26T06:48:06.730Z,1030.22
2017-01-26T06:48:32.279Z,1030.18
2017-01-26T06:48:57.887Z,1030.19
2017-01-26T06:49:23.532Z,1030.22
2017-01-26T06:49:49.102Z,1030.2
2017-01-26T06:50:14.666Z,1030.16
2017-01-26T06:50:40.248Z,1030.18
2017-01-26T06:51:05.912Z,1030.15
2017-01-26T06:51:31.502Z,1030.14
2017-01-26T06:51:57.079Z,1030.16
2017-01-26T06:52:22.647Z,1030.2
2017-01-26T06:52:48.206Z,1030.17
2017-01-26T06:53:13.767Z,1030.12
2017-01-26T06:53:39.425Z,1030.16
2017-01-26T06:54:04.876Z,1030.12
2017-01-26T06:54:30.488Z,1030.13
2017-01-26T06:54:56.054Z,1030.13
2017-01-26T06:55:21.602Z,1030.09
2017-01-26T06:55:47.166Z,1030.16
2017-01-26T06:56:12.910Z,1030.14
2017-01-26T06:56:38.496Z,1030.16
2017-01-26T06:57:04.091Z,1030.12
2017-01-26T06:57:29.706Z,1030.18
2017-01-26T06:57:55.274Z,1030.15
2017-01-26T06:58:20.829Z,1030.17
2017-01-26T06:58:46.501Z,1030.15
2017-01-26T06:59:12.083Z,1030.18
2017-01-26T06:59:37.710Z,1030.17
2017-01-26T07:00:03.291Z,1030.13
2017-01-26T07:01:07.014Z,1030.19
2017-01-26T07:01:32.589Z,1030.13
2017-01-26T07:01:58.148Z,1030.17
2017-01-26T07:02:23.750Z,1030.16
2017-01-26T07:02:49.332Z,1030.17
2017-01-26T07:03:14.889Z,1030.21
2017-01-26T07:03:40.640Z,1030.16
2017-01-26T07:04:06.454Z,1030.17
2017-01-26T07:04:31.993Z,1030.14
2017-01-26T07:04:57.545Z,1030.14
2017-01-26T07:05:23.135Z,1030.15
2017-01-26T07:05:48.708Z,1030.15
2017-01-26T07:06:14.283Z,1030.13
2017-01-26T07:06:39.855Z,1030.16
2017-01-26T07:07:05.398Z,1030.14
2017-01-26T07:07:30.965Z,1030.15
2017-01-26T07:07:56.546Z,1030.1
2017-01-26T07:08:22.134Z,1030.14
2017-01-26T07:08:47.707Z,1030.1
2017-01-26T07:09:13.264Z,1030.13
2017-01-26T07:09:38.855Z,1030.15
2017-01-26T07:10:04.440Z,1030.14
2017-01-26T07:10:29.992Z,1030.11
2017-01-26T07:10:55.639Z,1030.11
2017-01-26T07:11:21.229Z,1030.1
2017-01-26T07:11:46.795Z,1030.1
2017-01-26T07:12:12.367Z,1030.06
2017-01-26T07:12:37.943Z,1030.06
2017-01-26T07:13:03.498Z,1030.08
2017-01-26T07:13:29.175Z,1030.06
2017-01-26T07:13:54.709Z,1030.11
2017-01-26T07:14:20.300Z,1030.1
2017-01-26T07:14:45.870Z,1030.08
2017-01-26T07:15:11.423Z,1030.05
2017-01-26T07:15:36.983Z,1030.05
2017-01-26T07:16:02.541Z,1030.06
2017-01-26T07:16:28.108Z,1030.07
2017-01-26T07:16:53.747Z,1030.07
2017-01-26T07:17:19.294Z,1030.06
2017-01-26T07:17:44.854Z,1030.07
2017-01-26T07:18:10.412Z,1030.04
2017-01-26T07:18:35.978Z,1030.08
2017-01-26T07:19:01.537Z,1030.09
2017-01-26T07:19:27.104Z,1030.01
2017-01-26T07:19:52.668Z,1030.08
2017-01-26T07:20:18.222Z,1030.1
2017-01-26T07:20:43.871Z,1030.08
2017-01-26T07:21:09.429Z,1030.04
2017-01-26T07:21:34.988Z,1030.07
2017-01-26T07:22:00.689Z,1030.08
2017-01-26T07:22:26.317Z,1030.08
2017-01-26T07:22:51.870Z,1030.03
2017-01-26T07:23:17.514Z,1030.06
2017-01-26T07:23:43.108Z,1030.1
2017-01-26T07:24:08.674Z,1030.07
2017-01-26T07:24:34.260Z,1030.08
2017-01-26T07:24:59.896Z,1030.07
2017-01-26T07:25:25.460Z,1030.08
2017-01-26T07:25:51.022Z,1030.04
2017-01-26T07:26:16.576Z,1030.05
2017-01-26T07:26:42.137Z,1030.05
2017-01-26T07:27:07.689Z,1030.03
2017-01-26T07:27:33.267Z,1030.07
2017-01-26T07:27:58.837Z,1030.07
2017-01-26T07:28:24.465Z,1030.04
2017-01-26T07:28:50.037Z,1030.04
2017-01-26T07:29:15.607Z,1030.1
2017-01-26T07:29:41.186Z,1030.04
2017-01-26T07:30:06.909Z,1030.04
2017-01-26T07:30:32.472Z,1030.08
2017-01-26T07:30:58.062Z,1030.05
2017-01-26T07:31:23.702Z,1030.08
2017-01-26T07:31:49.272Z,1030.02
2017-01-26T07:32:14.841Z,1030.01
2017-01-26T07:32:40.473Z,1030.03
2017-01-26T07:33:06.025Z,1030.06
2017-01-26T07:33:31.584Z,1030.07
2017-01-26T07:33:57.215Z,1030.09
2017-01-26T07:34:22.932Z,1030.05
2017-01-26T07:34:48.497Z,1030.06
2017-01-26T07:35:14.087Z,1030.13
2017-01-26T07:35:39.681Z,1030.05
2017-01-26T07:36:05.259Z,1030.05
2017-01-26T07:36:30.824Z,1030.06
2017-01-26T07:36:56.465Z,1030.12
2017-01-26T07:37:22.034Z,1030.09
2017-01-26T07:37:47.609Z,1030.07
2017-01-26T07:38:13.182Z,1030.06
2017-01-26T07:38:38.742Z,1030.08
2017-01-26T07:39:04.343Z,1030.05
2017-01-26T07:39:29.884Z,1030.04
2017-01-26T07:39:55.443Z,1030.11
2017-01-26T07:40:21.073Z,1030.08
2017-01-26T07:40:46.699Z,1030.04
2017-01-26T07:41:12.264Z,1030.07
2017-01-26T07:41:37.828Z,1030.11
2017-01-26T07:42:03.487Z,1030.09
2017-01-26T07:42:29.071Z,1030.07
2017-01-26T07:42:54.640Z,1030.08
2017-01-26T07:43:20.202Z,1030.07
2017-01-26T07:43:45.894Z,1030.04
2017-01-26T07:44:11.470Z,1030.07
2017-01-26T07:44:37.019Z,1030.07
2017-01-26T07:45:02.604Z,1030.05
2017-01-26T07:45:28.253Z,1030.1
2017-01-26T07:45:53.819Z,1030.04
2017-01-26T07:46:19.503Z,1030.04
2017-01-26T07:46:45.058Z,1030.06
2017-01-26T07:47:10.620Z,1030.07
2017-01-26T07:47:36.179Z,1030.05
2017-01-26T07:48:01.737Z,1030.07
2017-01-26T07:48:27.307Z,1030.07
2017-01-26T07:48:52.888Z,1030.03
2017-01-26T07:49:18.470Z,1030.07
2017-01-26T07:49:44.038Z,1030.06
2017-01-26T07:50:09.662Z,1030.06
2017-01-26T07:50:35.262Z,1030.09
2017-01-26T07:51:00.816Z,1030.08
2017-01-26T07:51:26.429Z,1030.03
2017-01-26T07:51:52.099Z,1030.08
2017-01-26T07:52:17.661Z,1030.06
2017-01-26T07:52:43.285Z,1030.04
2017-01-26T07:53:08.918Z,1030.07
2017-01-26T07:53:34.508Z,1030.05
2017-01-26T07:54:00.083Z,1030.05
2017-01-26T07:54:25.650Z,1030.04
2017-01-26T07:54:51.210Z,1030.03
2017-01-26T07:55:16.782Z,1030.04
2017-01-26T07:55:42.413Z,1030.05
2017-01-26T07:56:08.076Z,1030.06
2017-01-26T07:56:33.728Z,1030.09
2017-01-26T07:56:59.281Z,1030.03
2017-01-26T07:57:24.851Z,1030.05
2017-01-26T07:57:50.410Z,1030.06
2017-01-26T07:58:15.973Z,1030.09
2017-01-26T07:58:41.552Z,1030.1
2017-01-26T07:59:07.106Z,1030.11
2017-01-26T07:59:32.789Z,1030.08
2017-01-26T07:59:58.453Z,1030.07
2017-01-26T08:00:24.132Z,1030.06
2017-01-26T08:00:49.689Z,1030.06
2017-01-26T08:01:15.336Z,1030.04
2017-01-26T08:01:40.932Z,1030.03
2017-01-26T08:02:06.592Z,1030.01
2017-01-26T08:02:32.143Z,1030.05
2017-01-26T08:02:57.730Z,1030.02
2017-01-26T08:03:23.292Z,1030.02
2017-01-26T08:03:48.843Z,1030.04
2017-01-26T08:04:14.417Z,1030.02
2017-01-26T08:04:40.127Z,1030.03
2017-01-26T08:05:05.692Z,1030.03
2017-01-26T08:05:31.373Z,1030.06
2017-01-26T08:05:56.944Z,1030.04
2017-01-26T08:06:22.535Z,1030.05
2017-01-26T08:06:48.103Z,1030.01
2017-01-26T08:07:13.733Z,1030.03
2017-01-26T08:07:39.297Z,1030.02
2017-01-26T08:08:04.871Z,1030.05
2017-01-26T08:08:30.470Z,1030.03
2017-01-26T08:08:56.033Z,1030.03
2017-01-26T08:09:21.594Z,1030.03
2017-01-26T08:09:47.156Z,1030.03
2017-01-26T08:10:12.733Z,1030.04
2017-01-26T08:10:38.358Z,1030
2017-01-26T08:11:03.936Z,1030.02
2017-01-26T08:11:29.560Z,1030
2017-01-26T08:11:55.151Z,1030.01
2017-01-26T08:12:20.771Z,1030.01
2017-01-26T08:12:46.334Z,1030
2017-01-26T08:13:11.889Z,1030.04
2017-01-26T08:13:37.523Z,1030
2017-01-26T08:14:03.085Z,1029.99
2017-01-26T08:14:28.659Z,1030.01
2017-01-26T08:14:54.227Z,1029.99
2017-01-26T08:15:19.868Z,1029.97
2017-01-26T08:15:45.446Z,1030.04
2017-01-26T08:16:11.049Z,1029.98
2017-01-26T08:16:36.600Z,1029.99
2017-01-26T08:17:02.295Z,1029.95
2017-01-26T08:17:27.860Z,1030
2017-01-26T08:17:53.409Z,1029.96
2017-01-26T08:18:18.988Z,1030.01
2017-01-26T08:18:44.551Z,1030.01
2017-01-26T08:19:10.112Z,1029.97
2017-01-26T08:19:35.691Z,1029.99
2017-01-26T08:20:01.268Z,1029.99
2017-01-26T08:20:26.934Z,1030.01
2017-01-26T08:20:52.507Z,1029.98
2017-01-26T08:21:18.087Z,1029.98
2017-01-26T08:21:43.655Z,1030.02
2017-01-26T08:22:09.239Z,1029.97
2017-01-26T08:22:34.787Z,1029.97
2017-01-26T08:23:00.366Z,1029.98
2017-01-26T08:23:25.923Z,1029.99
2017-01-26T08:23:51.485Z,1029.96
2017-01-26T08:24:17.090Z,1029.98
2017-01-26T08:24:42.678Z,1029.97
2017-01-26T08:25:08.233Z,1029.98
2017-01-26T08:25:33.796Z,1030
2017-01-26T08:25:59.362Z,1030
2017-01-26T08:26:24.944Z,1029.97
2017-01-26T08:26:50.510Z,1030
2017-01-26T08:27:16.076Z,1030.01
2017-01-26T08:27:41.637Z,1029.98
2017-01-26T08:28:07.225Z,1029.99
2017-01-26T08:28:32.797Z,1030.02
2017-01-26T08:28:58.463Z,1029.94
2017-01-26T08:29:24.117Z,1029.95
2017-01-26T08:29:49.676Z,1030
2017-01-26T08:30:15.329Z,1029.98
2017-01-26T08:30:40.904Z,1029.96
2017-01-26T08:31:06.467Z,1029.97
2017-01-26T08:31:32.032Z,1029.96
2017-01-26T08:31:57.678Z,1029.95
2017-01-26T08:32:23.258Z,1029.95
2017-01-26T08:32:48.850Z,1029.96
2017-01-26T08:33:14.411Z,1030
2017-01-26T08:33:39.982Z,1029.96
2017-01-26T08:34:05.536Z,1029.98
2017-01-26T08:34:31.108Z,1029.96
2017-01-26T08:34:56.690Z,1029.91
2017-01-26T08:35:22.243Z,1029.94
2017-01-26T08:35:47.814Z,1029.94
2017-01-26T08:36:13.363Z,1029.97
2017-01-26T08:36:38.940Z,1029.96
2017-01-26T08:37:04.636Z,1029.94
2017-01-26T08:37:30.211Z,1029.94
2017-01-26T08:37:55.773Z,1029.94
2017-01-26T08:38:21.349Z,1029.96
2017-01-26T08:38:47.093Z,1030
2017-01-26T08:39:12.667Z,1029.96
2017-01-26T08:39:38.304Z,1029.97
2017-01-26T08:40:03.920Z,1029.94
2017-01-26T08:40:29.448Z,1029.94
2017-01-26T08:40:55.030Z,1029.93
2017-01-26T08:41:20.628Z,1029.93
2017-01-26T08:41:46.186Z,1029.95
2017-01-26T08:42:11.774Z,1029.97
2017-01-26T08:42:37.376Z,1029.98
2017-01-26T08:43:02.982Z,1029.99
2017-01-26T08:43:28.510Z,1029.96
2017-01-26T08:43:54.080Z,1029.99
2017-01-26T08:44:19.638Z,1029.98
2017-01-26T08:44:45.235Z,1029.94
2017-01-26T08:45:10.798Z,1029.93
2017-01-26T08:45:36.395Z,1029.98
2017-01-26T08:46:02.001Z,1029.98
2017-01-26T08:46:27.573Z,1030
2017-01-26T08:46:53.121Z,1029.99
2017-01-26T08:47:18.691Z,1030.04
2017-01-26T08:47:44.257Z,1030.03
2017-01-26T08:48:09.814Z,1029.97
2017-01-26T08:48:35.394Z,1029.99
2017-01-26T08:49:00.947Z,1030
2017-01-26T08:49:26.496Z,1030.01
2017-01-26T08:49:52.063Z,1030.02
2017-01-26T08:50:17.633Z,1030.03
2017-01-26T08:50:43.226Z,1030.01
2017-01-26T08:51:08.778Z,1030.05
2017-01-26T08:51:34.328Z,1030
2017-01-26T08:51:59.880Z,1030.01
2017-01-26T08:52:25.585Z,1030.02
2017-01-26T08:52:51.186Z,1030.01
2017-01-26T08:53:16.737Z,1030
2017-01-26T08:53:42.314Z,1030
2017-01-26T08:54:08.014Z,1030.01
2017-01-26T08:54:33.577Z,1030.02
2017-01-26T08:54:59.132Z,1029.99
2017-01-26T08:55:24.791Z,1030
2017-01-26T08:55:50.355Z,1030.01
2017-01-26T08:56:15.937Z,1030.03
2017-01-26T08:56:41.555Z,1030.04
2017-01-26T08:57:07.233Z,1030.06
2017-01-26T08:57:32.847Z,1030.04
2017-01-26T08:57:58.411Z,1030.04
2017-01-26T08:58:24.236Z,1030.02
2017-01-26T08:58:50.426Z,1030.06
2017-01-26T08:59:15.995Z,1030.09
2017-01-26T08:59:41.558Z,1030.06
2017-01-26T09:00:07.142Z,1030.03
2017-01-26T09:00:32.738Z,1030.02
2017-01-26T09:00:58.305Z,1030.05
2017-01-26T09:01:23.877Z,1030.04
2017-01-26T09:01:49.439Z,1029.99
2017-01-26T09:02:15.018Z,1030
2017-01-26T09:02:40.603Z,1030.02
2017-01-26T09:03:06.209Z,1030
2017-01-26T09:03:31.776Z,1029.98
2017-01-26T09:03:57.325Z,1029.98
2017-01-26T09:04:22.886Z,1029.97
2017-01-26T09:04:48.462Z,1029.97
2017-01-26T09:05:14.035Z,1030.04
2017-01-26T09:05:39.604Z,1030
2017-01-26T09:06:05.235Z,1030
2017-01-26T09:06:30.867Z,1029.99
2017-01-26T09:06:56.437Z,1030.04
2017-01-26T09:07:22.015Z,1029.99
2017-01-26T09:07:47.728Z,1030.09
2017-01-26T09:08:13.298Z,1030.02
2017-01-26T09:08:38.848Z,1030.02
2017-01-26T09:09:04.401Z,1030.03
2017-01-26T09:09:30.098Z,1030.01
2017-01-26T09:09:55.654Z,1029.99
2017-01-26T09:10:21.219Z,1030.03
2017-01-26T09:10:46.848Z,1030.03
2017-01-26T09:11:12.410Z,1030.03
2017-01-26T09:11:37.999Z,1030.01
2017-01-26T09:12:03.579Z,1030.02
2017-01-26T09:12:29.127Z,1030.03
2017-01-26T09:12:54.727Z,1030.06
2017-01-26T09:13:20.295Z,1030.01
2017-01-26T09:13:45.857Z,1030.05
2017-01-26T09:14:11.540Z,1030.03
2017-01-26T09:14:37.039Z,1030.07